createdAt,value
2022-08-22T00:01:32.335Z,2.53
2022-08-22T00:03:03.075Z,1.65
2022-08-22T00:03:07.175Z,2.17
2022-08-22T00:03:08.440Z,1.85
2022-08-22T00:03:15.293Z,2.55
2022-08-22T00:03:15.976Z,2.30
2022-08-22T00:04:23.898Z,3.38
2022-08-22T00:07:02.673Z,2.70
2022-08-22T00:09:53.201Z,3.03
2022-08-22T00:12:50.636Z,2.70
2022-08-22T00:15:42.650Z,3.58
2022-08-22T00:18:15.191Z,2.60
2022-08-22T00:20:49.452Z,2.53
2022-08-22T00:23:27.719Z,2.85
2022-08-22T00:26:09.551Z,3.20
2022-08-22T00:28:38.674Z,2.65
2022-08-22T00:31:17.595Z,2.30
2022-08-22T00:34:04.565Z,2.72
2022-08-22T00:36:37.426Z,2.88
2022-08-22T00:39:16.602Z,2.72
2022-08-22T00:41:55.243Z,2.80
2022-08-22T00:44:40.394Z,2.83
2022-08-22T00:47:15.738Z,2.92
2022-08-22T00:49:56.029Z,2.90
2022-08-22T00:52:44.457Z,2.58
2022-08-22T00:55:20.708Z,3.03
2022-08-22T00:58:05.970Z,2.60
2022-08-22T01:00:40.843Z,3.22
2022-08-22T01:03:38.409Z,2.85
2022-08-22T01:06:45.327Z,2.90
2022-08-22T01:09:21.249Z,3.00
2022-08-22T01:12:09.592Z,2.80
2022-08-22T01:14:44.353Z,2.97
2022-08-22T01:17:54.486Z,3.30
2022-08-22T01:20:37.166Z,2.97
2022-08-22T01:23:25.658Z,3.25
2022-08-22T01:26:07.490Z,2.65
2022-08-22T01:29:16.084Z,3.28
2022-08-22T01:32:20.997Z,3.70
2022-08-22T01:35:03.981Z,3.03
2022-08-22T01:37:54.601Z,2.72
2022-08-22T01:40:27.243Z,3.42
2022-08-22T01:42:53.995Z,3.63
2022-08-22T01:45:41.938Z,3.78
2022-08-22T01:48:40.541Z,3.30
2022-08-22T01:51:37.133Z,3.22
2022-08-22T01:54:13.060Z,3.55
2022-08-22T01:56:45.821Z,2.83
2022-08-22T01:59:33.754Z,3.80
2022-08-22T02:04:55.861Z,3.28
2022-08-22T02:07:32.472Z,3.30
2022-08-22T02:10:48.282Z,3.33
2022-08-22T02:13:14.975Z,3.63
2022-08-22T02:15:41.690Z,3.58
2022-08-22T02:18:20.975Z,3.63
2022-08-22T02:20:47.662Z,3.20
2022-08-22T02:23:35.578Z,3.60
2022-08-22T02:26:02.320Z,3.47
2022-08-22T02:28:57.995Z,3.85
2022-08-22T02:31:42.438Z,3.83
2022-08-22T02:34:35.521Z,3.80
2022-08-22T02:37:21.907Z,4.60
2022-08-22T02:39:57.140Z,3.63
2022-08-22T02:42:33.824Z,4.63
2022-08-22T02:45:15.550Z,3.95
2022-08-22T02:48:06.536Z,3.60
2022-08-22T02:50:43.209Z,4.32
2022-08-22T02:53:32.383Z,4.13
2022-08-22T02:56:11.553Z,5.60
2022-08-22T02:59:00.036Z,4.68
2022-08-22T03:01:29.964Z,4.45
2022-08-22T03:04:26.876Z,4.82
2022-08-22T03:07:11.883Z,5.25
2022-08-22T03:10:01.689Z,5.03
2022-08-22T03:12:40.288Z,5.03
2022-08-22T03:15:18.571Z,4.60
2022-08-22T03:17:57.182Z,4.22
2022-08-22T03:20:54.752Z,4.45
2022-08-22T03:23:36.381Z,4.63
2022-08-22T03:26:44.993Z,4.57
2022-08-22T03:29:19.489Z,4.80
2022-08-22T03:32:12.839Z,5.53
2022-08-22T03:35:05.714Z,5.03
2022-08-22T03:37:41.161Z,5.13
2022-08-22T03:40:21.749Z,5.18
2022-08-22T03:43:20.791Z,6.13
2022-08-22T03:46:22.944Z,5.72
2022-08-22T03:49:23.442Z,5.75
2022-08-22T03:52:27.404Z,7.97
2022-08-22T03:55:19.108Z,12.23
2022-08-22T03:58:19.168Z,6.85
2022-08-22T04:01:11.525Z,6.78
2022-08-22T04:03:59.463Z,6.68
2022-08-22T04:07:28.440Z,8.38
2022-08-22T04:10:20.040Z,7.97
2022-08-22T04:12:59.219Z,5.88
2022-08-22T04:16:04.226Z,5.88
2022-08-22T04:18:45.414Z,6.25
2022-08-22T04:21:33.055Z,6.30
2022-08-22T04:24:30.106Z,6.28
2022-08-22T04:26:56.899Z,6.63
2022-08-22T04:29:42.939Z,5.78
2022-08-22T04:32:17.326Z,6.55
2022-08-22T04:34:59.277Z,5.95
2022-08-22T04:37:29.083Z,5.75
2022-08-22T04:40:17.124Z,7.18
2022-08-22T04:42:53.216Z,6.35
2022-08-22T04:45:25.577Z,6.53
2022-08-22T04:47:57.488Z,6.35
2022-08-22T04:50:33.317Z,6.35
2022-08-22T04:53:13.947Z,8.10
2022-08-22T04:56:31.733Z,6.80
2022-08-22T04:59:04.665Z,6.78
2022-08-22T05:01:55.068Z,7.53
2022-08-22T05:04:31.506Z,7.25
2022-08-22T05:07:18.257Z,7.57
2022-08-22T05:09:49.501Z,7.18
2022-08-22T05:12:23.121Z,7.55
2022-08-22T05:14:59.628Z,7.07
2022-08-22T05:17:32.200Z,7.53
2022-08-22T05:20:07.978Z,7.28
2022-08-22T05:22:40.358Z,7.32
2022-08-22T05:25:11.426Z,8.18
2022-08-22T05:27:49.980Z,7.10
2022-08-22T05:30:27.058Z,7.47
2022-08-22T05:33:05.648Z,7.95
2022-08-22T05:35:39.925Z,7.70
2022-08-22T05:38:12.471Z,6.85
2022-08-22T05:40:40.906Z,6.95
2022-08-22T05:43:11.341Z,7.25
2022-08-22T05:45:40.637Z,7.50
2022-08-22T05:48:20.428Z,7.75
2022-08-22T05:50:56.734Z,7.55
2022-08-22T05:53:32.126Z,6.20
2022-08-22T05:56:03.415Z,5.40
2022-08-22T05:58:39.117Z,6.13
2022-08-22T06:01:24.206Z,6.43
2022-08-22T06:04:11.842Z,5.68
2022-08-22T06:06:48.957Z,5.82
2022-08-22T06:09:25.748Z,6.13
2022-08-22T06:12:08.429Z,5.88
2022-08-22T06:14:52.897Z,6.13
2022-08-22T06:17:29.016Z,5.53
2022-08-22T06:19:56.082Z,5.75
2022-08-22T06:24:58.992Z,6.32
2022-08-22T06:27:31.389Z,7.47
2022-08-22T06:30:03.305Z,6.75
2022-08-22T06:32:59.290Z,6.35
2022-08-22T06:35:56.839Z,7.43
2022-08-22T06:38:29.666Z,7.38
2022-08-22T06:41:00.578Z,7.30
2022-08-22T06:43:38.696Z,6.15
2022-08-22T06:46:07.538Z,7.82
2022-08-22T06:48:36.323Z,8.95
2022-08-22T06:51:07.223Z,10.18
2022-08-22T06:53:48.265Z,10.07
2022-08-22T06:56:25.618Z,8.23
2022-08-22T06:58:56.566Z,7.88
2022-08-22T07:01:27.249Z,7.93
2022-08-22T07:03:59.022Z,6.43
2022-08-22T07:06:37.137Z,9.23
2022-08-22T07:09:07.039Z,9.40
2022-08-22T07:11:39.733Z,7.47
2022-08-22T07:14:12.772Z,7.95
2022-08-22T07:16:44.387Z,7.32
2022-08-22T07:19:25.838Z,7.93
2022-08-22T07:21:53.391Z,6.72
2022-08-22T07:24:31.902Z,7.30
2022-08-22T07:27:08.921Z,6.22
2022-08-22T07:29:44.957Z,6.30
2022-08-22T07:32:16.268Z,6.32
2022-08-22T07:35:07.825Z,5.38
2022-08-22T07:37:53.722Z,6.90
2022-08-22T07:40:53.756Z,6.18
2022-08-22T07:43:30.123Z,6.10
2022-08-22T07:46:14.382Z,6.18
2022-08-22T07:49:07.673Z,6.68
2022-08-22T07:51:50.683Z,5.22
2022-08-22T07:55:01.240Z,5.53
2022-08-22T07:57:49.456Z,6.55
2022-08-22T08:00:19.871Z,6.72
2022-08-22T08:02:58.742Z,6.85
2022-08-22T08:05:29.497Z,7.03
2022-08-22T08:07:57.089Z,6.13
2022-08-22T08:10:31.868Z,5.78
2022-08-22T08:13:03.808Z,6.05
2022-08-22T08:15:33.083Z,5.55
2022-08-22T08:18:05.602Z,6.80
2022-08-22T08:20:35.664Z,6.60
2022-08-22T08:23:04.603Z,5.57
2022-08-22T08:25:37.161Z,6.30
2022-08-22T08:28:23.951Z,5.40
2022-08-22T08:30:59.718Z,6.45
2022-08-22T08:33:33.564Z,6.03
2022-08-22T08:36:33.472Z,5.15
2022-08-22T08:39:14.086Z,6.10
2022-08-22T08:42:15.358Z,5.70
2022-08-22T08:44:48.672Z,5.60
2022-08-22T08:47:39.888Z,5.68
2022-08-22T08:50:19.741Z,5.97
2022-08-22T08:53:17.630Z,5.57
2022-08-22T08:56:07.193Z,5.18
2022-08-22T08:58:52.725Z,5.68
2022-08-22T09:01:40.788Z,4.45
2022-08-22T09:04:15.227Z,5.95
2022-08-22T09:07:18.824Z,5.40
2022-08-22T09:10:22.181Z,5.70
2022-08-22T09:13:23.069Z,5.57
2022-08-22T09:16:10.863Z,5.50
2022-08-22T09:18:37.536Z,5.05
2022-08-22T09:21:36.236Z,5.45
2022-08-22T09:24:10.829Z,5.93
2022-08-22T09:27:08.460Z,5.68
2022-08-22T09:29:51.501Z,5.30
2022-08-22T09:32:28.756Z,4.68
2022-08-22T09:35:07.449Z,4.70
2022-08-22T09:37:46.678Z,5.00
2022-08-22T09:43:21.185Z,5.03
2022-08-22T09:46:22.543Z,4.30
2022-08-22T09:49:18.054Z,4.82
2022-08-22T09:51:55.285Z,4.47
2022-08-22T09:54:53.913Z,4.72
2022-08-22T09:57:52.490Z,4.60
2022-08-22T10:00:30.016Z,3.83
2022-08-22T10:03:28.671Z,4.35
2022-08-22T10:06:13.358Z,4.68
2022-08-22T10:09:31.447Z,3.65
2022-08-22T10:12:15.261Z,3.30
2022-08-22T10:15:16.774Z,4.13
2022-08-22T10:18:06.286Z,3.83
2022-08-22T10:20:48.986Z,3.70
2022-08-22T10:23:29.727Z,2.90
2022-08-22T10:26:25.913Z,2.70
2022-08-22T10:29:02.742Z,3.03
